Time;durP1;ratioP1;P1;durP2;ratioP2;P2;SDS_P1;SDS_P2;PMS_P1;PMS_P2;Temp;Humidity;BMP_temperature;BMP_pressure;BME280_temperature;BME280_humidity;BME280_pressure;Samples;Min_cycle;Max_cycle;Signal;HPM_P1;HPM_P2
2021/07/22 00:00:39;;;;;;;20.15;11.27;;;;;;;17.31;98.73;97614.72;5130707;27;20019;-73
2021/07/22 00:03:04;;;;;;;17.25;11.75;;;;;;;17.20;98.78;97590.47;5129475;27;20027;-74
2021/07/22 00:05:30;;;;;;;18.65;11.40;;;;;;;17.21;98.97;97594.88;5112516;28;20023;-74
2021/07/22 00:08:00;;;;;;;18.40;11.38;;;;;;;17.16;99.83;97595.31;5112642;28;20059;-74
2021/07/22 00:10:25;;;;;;;18.30;10.98;;;;;;;17.19;100.00;97613.09;5112436;28;20030;-73
2021/07/22 00:12:51;;;;;;;22.63;11.50;;;;;;;17.05;100.00;97602.63;5130689;27;20047;-74
2021/07/22 00:15:16;;;;;;;19.30;11.63;;;;;;;17.08;100.00;97605.91;5130293;27;20067;-74
2021/07/22 00:17:42;;;;;;;18.48;11.70;;;;;;;17.01;100.00;97601.19;5112162;27;20517;-74
2021/07/22 00:20:08;;;;;;;17.00;10.98;;;;;;;16.99;100.00;97593.19;5128146;28;20019;-73
2021/07/22 00:22:37;;;;;;;25.92;11.70;;;;;;;17.06;100.00;97604.34;5130643;27;20378;-75
2021/07/22 00:25:07;;;;;;;19.83;11.43;;;;;;;17.04;100.00;97606.31;5111387;28;20019;-74
2021/07/22 00:27:33;;;;;;;22.83;12.20;;;;;;;16.92;100.00;97585.78;5128325;27;20154;-74
2021/07/22 00:29:59;;;;;;;21.05;12.27;;;;;;;16.93;100.00;97609.09;5133284;27;20023;-73
2021/07/22 00:32:25;;;;;;;27.35;12.00;;;;;;;16.91;99.25;97593.03;5135359;27;20528;-75
2021/07/22 00:34:50;;;;;;;25.05;12.15;;;;;;;16.86;100.00;97589.00;5132813;27;20507;-73
2021/07/22 00:37:16;;;;;;;18.38;11.43;;;;;;;16.81;99.35;97589.41;5132912;27;20508;-73
2021/07/22 00:39:41;;;;;;;20.15;11.75;;;;;;;16.84;98.62;97581.03;5132828;27;20527;-73
2021/07/22 00:42:07;;;;;;;21.52;11.50;;;;;;;16.91;99.08;97602.97;5134080;27;20102;-74
2021/07/22 00:44:33;;;;;;;22.80;11.80;;;;;;;16.97;98.95;97594.34;5132676;27;20023;-73
2021/07/22 00:46:58;;;;;;;18.55;11.57;;;;;;;16.90;99.01;97582.31;5134264;27;20076;-76
2021/07/22 00:49:24;;;;;;;19.65;12.00;;;;;;;16.94;98.67;97600.00;5132654;27;20579;-73
2021/07/22 00:51:49;;;;;;;19.13;12.13;;;;;;;16.77;99.78;97582.53;5133943;27;20099;-74
2021/07/22 00:54:15;;;;;;;21.95;11.50;;;;;;;16.75;100.00;97584.53;5115381;27;20027;-74
2021/07/22 00:56:40;;;;;;;24.25;12.80;;;;;;;16.64;100.00;97571.91;5133582;27;20545;-74
2021/07/22 00:59:06;;;;;;;25.23;12.32;;;;;;;16.76;100.00;97592.47;5132634;27;20393;-74
2021/07/22 01:01:32;;;;;;;21.13;12.13;;;;;;;16.70;100.00;97571.41;5132255;27;20031;-75
2021/07/22 01:03:57;;;;;;;20.48;11.38;;;;;;;16.69;100.00;97596.72;5115400;27;20459;-74
2021/07/22 01:06:23;;;;;;;19.13;11.60;;;;;;;16.77;100.00;97596.91;5115522;27;20050;-74
2021/07/22 01:08:49;;;;;;;22.00;11.18;;;;;;;16.66;100.00;97591.56;5132407;27;20092;-74
2021/07/22 01:11:14;;;;;;;20.05;11.88;;;;;;;16.74;100.00;97607.97;5131577;27;20088;-73
2021/07/22 01:13:40;;;;;;;21.73;10.98;;;;;;;16.66;100.00;97591.56;5131992;27;20077;-73
2021/07/22 01:16:06;;;;;;;18.13;11.68;;;;;;;16.69;100.00;97588.63;5132017;27;20102;-74
2021/07/22 01:18:31;;;;;;;21.63;11.20;;;;;;;16.70;100.00;97603.81;5132340;27;20053;-75
2021/07/22 01:20:57;;;;;;;21.90;12.25;;;;;;;16.68;100.00;97595.00;5113384;27;20019;-74
2021/07/22 01:23:22;;;;;;;29.45;11.73;;;;;;;16.73;100.00;97603.53;5114974;27;20034;-74
2021/07/22 01:25:48;;;;;;;20.73;12.15;;;;;;;16.51;100.00;97595.56;5132149;27;20453;-75
2021/07/22 01:28:14;;;;;;;22.63;11.57;;;;;;;16.59;100.00;97600.31;5132062;27;20015;-75
2021/07/22 01:30:39;;;;;;;20.58;11.50;;;;;;;16.52;100.00;97610.75;5133263;27;20548;-75
2021/07/22 01:33:05;;;;;;;18.98;11.80;;;;;;;16.47;100.00;97610.28;5132364;27;20019;-75
2021/07/22 01:35:30;;;;;;;20.60;12.02;;;;;;;16.49;100.00;97613.72;5133276;27;20451;-75
2021/07/22 01:37:56;;;;;;;23.25;12.38;;;;;;;16.38;100.00;97592.19;5131876;27;20015;-76
2021/07/22 01:40:21;;;;;;;19.25;11.25;;;;;;;16.36;100.00;97601.41;5132734;27;20031;-75
2021/07/22 01:42:47;;;;;;;18.80;11.52;;;;;;;16.27;100.00;97594.94;5131918;27;20022;-75
2021/07/22 01:45:13;;;;;;;18.73;11.68;;;;;;;16.22;100.00;97581.81;5131764;27;20023;-75
2021/07/22 01:47:39;;;;;;;18.05;11.57;;;;;;;16.31;100.00;97603.59;5131768;27;20026;-75
2021/07/22 01:50:05;;;;;;;21.05;12.15;;;;;;;16.32;100.00;97608.91;5131542;27;20034;-75
2021/07/22 01:52:31;;;;;;;21.55;11.63;;;;;;;16.20;100.00;97605.38;5133042;27;20379;-75
2021/07/22 01:54:56;;;;;;;23.83;12.63;;;;;;;16.18;100.00;97612.72;5114499;27;20031;-75
2021/07/22 02:00:09;;;;;;;18.52;11.48;;;;;;;16.13;100.00;97608.72;5131758;27;20042;-75
2021/07/22 02:02:35;;;;;;;22.00;12.55;;;;;;;16.09;100.00;97601.84;5131384;27;20027;-75
2021/07/22 02:05:01;;;;;;;21.73;12.18;;;;;;;15.97;100.00;97595.63;5131373;27;20019;-75
2021/07/22 02:07:26;;;;;;;24.67;12.27;;;;;;;16.04;100.00;97613.03;5131272;27;20030;-75
2021/07/22 02:09:52;;;;;;;21.52;12.40;;;;;;;16.06;100.00;97604.78;5131112;27;20023;-75
2021/07/22 02:12:18;;;;;;;28.00;12.32;;;;;;;16.08;100.00;97605.53;5132441;27;20023;-75
2021/07/22 02:14:43;;;;;;;20.60;12.80;;;;;;;16.13;100.00;97595.22;5113489;27;20054;-75
2021/07/22 02:17:09;;;;;;;19.45;11.68;;;;;;;16.29;100.00;97598.34;5132354;27;20084;-75
2021/07/22 02:19:35;;;;;;;21.33;12.23;;;;;;;16.32;100.00;97583.72;5131170;27;20102;-75
2021/07/22 02:22:01;;;;;;;24.45;11.70;;;;;;;16.44;100.00;97591.66;5113892;27;20029;-75
2021/07/22 02:24:26;;;;;;;19.45;12.13;;;;;;;16.46;100.00;97588.81;5113969;27;20029;-75
2021/07/22 02:26:52;;;;;;;21.88;11.75;;;;;;;16.51;100.00;97595.56;5130683;27;20019;-75
2021/07/22 02:29:17;;;;;;;20.08;12.95;;;;;;;16.52;100.00;97593.72;5132136;27;20050;-75
2021/07/22 02:31:43;;;;;;;19.65;11.95;;;;;;;16.66;100.00;97607.78;5113641;27;20042;-75
2021/07/22 02:34:08;;;;;;;19.75;12.25;;;;;;;16.73;100.00;97600.84;5131134;27;20477;-75
2021/07/22 02:36:34;;;;;;;22.73;12.05;;;;;;;16.78;100.00;97595.91;5132391;27;20477;-75
2021/07/22 02:39:00;;;;;;;32.55;12.77;;;;;;;16.92;100.00;97604.69;5130901;27;20023;-75
2021/07/22 02:41:29;;;;;;;18.83;11.48;;;;;;;17.00;100.00;97594.91;5130886;27;20387;-74
2021/07/22 02:43:55;;;;;;;20.98;11.90;;;;;;;16.99;100.00;97590.50;5129371;27;20057;-75
2021/07/22 02:46:20;;;;;;;26.65;11.55;;;;;;;17.21;100.00;97592.19;5113463;27;20046;-75
2021/07/22 02:48:46;;;;;;;21.88;12.05;;;;;;;17.33;100.00;97610.03;5130602;27;20015;-75
2021/07/22 02:51:11;;;;;;;19.95;11.38;;;;;;;17.35;99.98;97592.66;5131377;27;20045;-75
2021/07/22 02:53:37;;;;;;;22.05;11.75;;;;;;;17.41;100.00;97590.44;5130855;27;20106;-74
2021/07/22 02:56:03;;;;;;;22.17;11.18;;;;;;;17.46;98.53;97599.84;5130596;27;20451;-75
2021/07/22 02:58:30;;;;;;;20.15;11.57;;;;;;;17.44;98.84;97599.13;5113334;27;20571;-75
2021/07/22 03:00:56;;;;;;;25.42;13.07;;;;;;;17.50;99.81;97613.97;5131539;27;20473;-75
2021/07/22 03:03:22;;;;;;;31.35;17.42;;;;;;;17.56;100.00;97621.56;5130392;27;20037;-75
2021/07/22 03:05:48;;;;;;;21.92;12.20;;;;;;;17.56;98.86;97622.41;5130549;27;20018;-75
2021/07/22 03:08:14;;;;;;;24.10;13.25;;;;;;;17.49;100.00;97602.28;5131400;27;20406;-75
2021/07/22 03:10:41;;;;;;;21.60;10.88;;;;;;;17.60;99.04;97621.13;5130681;27;20383;-75
2021/07/22 03:13:06;;;;;;;19.25;11.02;;;;;;;17.63;98.70;97620.84;5130141;27;20019;-75
2021/07/22 03:15:32;;;;;;;23.05;11.30;;;;;;;17.41;99.11;97609.38;5113039;28;20038;-75
2021/07/22 03:17:58;;;;;;;15.05;10.10;;;;;;;17.40;100.00;97621.16;5112905;28;20034;-75
2021/07/22 03:20:24;;;;;;;24.35;10.73;;;;;;;17.40;99.80;97624.72;5113087;28;20027;-75
2021/07/22 03:22:49;;;;;;;21.75;10.15;;;;;;;17.29;99.12;97622.09;5112938;28;20039;-75
2021/07/22 03:25:15;;;;;;;19.63;9.90;;;;;;;17.20;100.00;97618.34;5130203;28;20051;-75
2021/07/22 03:27:41;;;;;;;14.55;10.00;;;;;;;17.25;99.31;97626.06;5130154;27;20027;-75
2021/07/22 03:30:07;;;;;;;22.65;10.60;;;;;;;17.12;100.00;97626.28;5130108;28;20027;-75
2021/07/22 03:32:32;;;;;;;22.92;11.80;;;;;;;17.18;100.00;97627.59;5112885;28;20474;-75
2021/07/22 03:34:58;;;;;;;24.25;11.00;;;;;;;17.16;100.00;97632.28;5130023;28;20038;-75
2021/07/22 03:37:23;;;;;;;24.23;11.25;;;;;;;17.17;100.00;97628.56;5131441;27;20027;-75
2021/07/22 03:39:49;;;;;;;18.90;11.18;;;;;;;17.07;100.00;97633.91;5130097;28;20421;-76
2021/07/22 03:42:15;;;;;;;21.63;12.07;;;;;;;17.10;100.00;97643.63;5130071;28;20406;-75
2021/07/22 03:44:40;;;;;;;18.13;11.90;;;;;;;17.01;100.00;97628.22;5112909;28;20401;-75
2021/07/22 03:47:06;;;;;;;20.85;12.40;;;;;;;17.05;100.00;97643.16;5129553;28;20030;-75
2021/07/22 03:49:33;;;;;;;24.15;12.68;;;;;;;16.98;100.00;97647.41;5112545;28;20031;-75
2021/07/22 03:51:58;;;;;;;27.55;13.23;;;;;;;16.93;100.00;97636.09;5129525;28;20106;-75
2021/07/22 03:54:24;;;;;;;20.15;12.32;;;;;;;16.92;100.00;97642.53;5130411;27;20102;-75
2021/07/22 03:56:50;;;;;;;25.15;12.75;;;;;;;16.97;100.00;97646.53;5112085;28;20031;-75
2021/07/22 03:59:19;;;;;;;21.60;14.30;;;;;;;17.04;100.00;97650.41;5131087;27;20034;-75
2021/07/22 04:01:45;;;;;;;24.48;13.63;;;;;;;16.97;100.00;97634.88;5127956;27;20450;-75
2021/07/22 04:04:10;;;;;;;24.45;14.70;;;;;;;17.07;100.00;97641.19;5114805;27;20114;-75
2021/07/22 04:06:37;;;;;;;34.47;14.45;;;;;;;17.20;100.00;97648.09;5134153;27;20053;-75
2021/07/22 04:09:04;;;;;;;30.08;13.18;;;;;;;17.12;100.00;97637.09;5132152;27;20099;-76
2021/07/22 04:11:30;;;;;;;31.92;12.90;;;;;;;17.22;100.00;97638.03;5116352;27;20581;-77
2021/07/22 04:13:55;;;;;;;27.70;12.90;;;;;;;17.27;100.00;97660.09;5114079;27;20051;-75
2021/07/22 04:16:21;;;;;;;23.63;12.68;;;;;;;17.27;100.00;97656.53;5132811;27;20023;-75
2021/07/22 04:18:46;;;;;;;26.35;14.30;;;;;;;17.33;100.00;97653.28;5132672;27;20019;-75
2021/07/22 04:21:12;;;;;;;28.02;13.75;;;;;;;17.32;100.00;97648.88;5133774;27;20382;-75
2021/07/22 04:23:38;;;;;;;27.55;12.52;;;;;;;17.46;100.00;97653.06;5116116;27;20023;-75
2021/07/22 04:26:03;;;;;;;24.77;11.88;;;;;;;17.48;100.00;97642.97;5132755;27;20031;-78
2021/07/22 04:28:29;;;;;;;23.23;12.32;;;;;;;17.63;100.00;97658.72;5116516;27;20039;-78
2021/07/22 04:30:54;;;;;;;24.85;13.02;;;;;;;17.78;100.00;97657.38;5116397;27;20114;-75
2021/07/22 04:33:20;;;;;;;22.95;12.27;;;;;;;18.04;98.93;97665.88;5132514;27;20482;-76
2021/07/22 04:35:46;;;;;;;26.05;12.50;;;;;;;18.07;97.80;97662.03;5132689;27;20027;-76
2021/07/22 04:38:11;;;;;;;23.55;11.70;;;;;;;18.28;96.67;97666.34;5133163;27;20114;-78
2021/07/22 04:40:37;;;;;;;33.17;11.80;;;;;;;18.45;95.83;97672.09;5131757;27;20027;-74
2021/07/22 04:43:02;;;;;;;28.02;12.45;;;;;;;18.53;92.58;97675.81;5130586;27;20397;-75
2021/07/22 04:45:28;;;;;;;23.92;13.02;;;;;;;18.60;92.50;97676.97;5131450;27;20026;-75
2021/07/22 04:47:54;;;;;;;27.23;12.85;;;;;;;18.70;92.06;97679.72;5133732;27;20030;-75
2021/07/22 04:50:19;;;;;;;25.00;12.80;;;;;;;18.63;91.83;97671.28;5133822;27;20048;-75
2021/07/22 04:52:45;;;;;;;27.63;13.07;;;;;;;18.81;91.82;97691.25;5116149;27;20499;-76
2021/07/22 04:55:10;;;;;;;31.30;13.10;;;;;;;18.89;91.50;97693.25;5133194;27;20058;-75
2021/07/22 04:57:36;;;;;;;43.72;13.30;;;;;;;19.07;88.66;97696.09;5133489;27;20023;-75
2021/07/22 05:00:06;;;;;;;31.90;12.68;;;;;;;19.11;88.60;97692.09;5133181;27;20054;-75
2021/07/22 05:02:31;;;;;;;35.28;11.95;;;;;;;19.46;86.34;97692.34;5134396;27;20102;-75
2021/07/22 05:04:57;;;;;;;23.42;11.38;;;;;;;20.15;82.06;97684.66;5116022;27;20046;-75
2021/07/22 05:07:23;;;;;;;22.55;11.45;;;;;;;22.23;72.37;97706.75;5133003;27;20054;-75
2021/07/22 05:09:48;;;;;;;60.15;12.95;;;;;;;24.19;62.70;97684.72;5134584;27;20038;-75
2021/07/22 05:12:14;;;;;;;28.35;10.65;;;;;;;25.09;58.15;97712.50;5133187;27;20027;-76
2021/07/22 05:14:39;;;;;;;35.05;10.15;;;;;;;24.83;58.50;97710.09;5132715;27;20035;-77
2021/07/22 05:17:05;;;;;;;33.05;11.10;;;;;;;24.70;59.13;97704.34;5134369;27;20027;-76
2021/07/22 05:19:31;;;;;;;50.70;12.73;;;;;;;24.90;58.15;97710.22;5133086;27;20046;-75
2021/07/22 05:21:56;;;;;;;24.95;10.75;;;;;;;25.04;57.82;97704.81;5132738;27;20027;-76
2021/07/22 05:24:22;;;;;;;39.25;14.20;;;;;;;25.84;55.46;97710.72;5132541;27;20027;-76
2021/07/22 05:26:49;;;;;;;41.67;11.93;;;;;;;27.63;49.15;97696.31;5134088;27;20026;-76
2021/07/22 05:29:15;;;;;;;25.92;9.93;;;;;;;29.55;44.36;97698.81;5132596;27;20027;-76
2021/07/22 05:31:41;;;;;;;21.05;10.60;;;;;;;31.07;40.71;97716.03;5133031;27;20041;-76
2021/07/22 05:34:07;;;;;;;28.60;10.15;;;;;;;32.36;38.28;97716.38;5132475;27;20019;-76
2021/07/22 05:36:35;;;;;;;25.60;9.70;;;;;;;33.40;35.89;97722.63;5132562;27;20080;-73
2021/07/22 05:39:02;;;;;;;23.65;11.32;;;;;;;34.17;35.27;97718.03;5115620;27;20110;-76
2021/07/22 05:41:28;;;;;;;28.67;12.13;;;;;;;34.43;34.84;97711.97;5132499;27;20034;-75
2021/07/22 05:43:54;;;;;;;20.73;11.65;;;;;;;33.93;35.57;97722.69;5132434;27;20130;-76
2021/07/22 05:46:20;;;;;;;21.40;10.60;;;;;;;33.61;35.46;97733.22;5132731;27;20118;-76
2021/07/22 05:48:49;;;;;;;17.10;7.15;;;;;;;32.97;35.08;97719.13;5133874;27;20023;-73
2021/07/22 05:51:15;;;;;;;26.48;8.65;;;;;;;32.36;36.70;97725.56;5132251;27;20027;-74
2021/07/22 05:53:41;;;;;;;20.27;9.60;;;;;;;31.32;39.28;97725.22;5132110;27;20034;-76
2021/07/22 05:56:07;;;;;;;11.85;6.30;;;;;;;29.19;41.23;97733.28;5132043;27;20098;-74
2021/07/22 05:58:34;;;;;;;26.40;5.95;;;;;;;27.89;44.21;97741.41;5115180;27;20032;-76
2021/07/22 06:00:59;;;;;;;16.73;6.20;;;;;;;28.35;42.96;97714.25;5132306;27;20097;-76
2021/07/22 06:03:25;;;;;;;10.93;5.13;;;;;;;29.29;41.84;97729.09;5131884;27;20041;-76
2021/07/22 06:05:51;;;;;;;10.43;5.80;;;;;;;31.68;36.75;97714.41;5132144;27;20490;-74
2021/07/22 06:08:16;;;;;;;6.90;5.05;;;;;;;32.84;34.95;97699.88;5131987;27;20428;-74
2021/07/22 06:10:42;;;;;;;12.65;7.13;;;;;;;34.38;32.29;97717.44;5133312;27;20023;-74
2021/07/22 06:13:07;;;;;;;10.82;5.95;;;;;;;35.14;30.76;97703.34;5131579;27;20031;-74
2021/07/22 06:15:33;;;;;;;9.80;4.93;;;;;;;35.61;29.71;97708.72;5131973;27;20023;-74
2021/07/22 06:17:59;;;;;;;15.98;6.07;;;;;;;35.72;29.93;97711.44;5114720;27;20114;-76
2021/07/22 06:20:24;;;;;;;22.23;5.97;;;;;;;36.24;29.60;97725.19;5131781;27;20043;-76
2021/07/22 06:22:50;;;;;;;11.27;5.47;;;;;;;36.03;28.88;97717.53;5132023;27;20502;-76
2021/07/22 06:25:16;;;;;;;14.63;4.63;;;;;;;34.25;30.29;97714.88;5131119;27;20100;-75
2021/07/22 06:27:42;;;;;;;8.07;4.75;;;;;;;33.66;31.45;97713.06;5132126;27;20425;-75
2021/07/22 06:30:09;;;;;;;11.68;5.22;;;;;;;34.37;31.32;97721.28;5131893;27;20463;-76
2021/07/22 06:32:35;;;;;;;6.50;5.05;;;;;;;35.43;30.00;97720.91;5131797;27;20079;-75
2021/07/22 06:35:01;;;;;;;11.05;4.80;;;;;;;35.77;28.98;97708.75;5131656;27;20031;-76
2021/07/22 06:37:26;;;;;;;13.73;5.65;;;;;;;36.86;27.51;97721.13;5131739;27;20019;-76
2021/07/22 06:39:52;;;;;;;31.85;6.05;;;;;;;37.70;26.29;97716.06;5131849;27;20156;-76
2021/07/22 06:42:17;;;;;;;45.50;6.68;;;;;;;37.20;26.67;97709.88;5132474;27;20057;-75
2021/07/22 06:44:43;;;;;;;25.10;4.53;;;;;;;37.18;26.57;97704.56;5131609;27;20470;-75
2021/07/22 06:47:09;;;;;;;11.48;4.32;;;;;;;37.29;27.45;97711.94;5131654;27;20027;-75
2021/07/22 06:49:34;;;;;;;7.78;4.20;;;;;;;35.94;28.46;97708.75;5131119;27;20026;-75
2021/07/22 06:52:00;;;;;;;8.57;4.47;;;;;;;35.55;28.80;97709.69;5114152;27;20058;-76
2021/07/22 06:54:25;;;;;;;15.88;4.47;;;;;;;36.32;28.08;97699.69;5130968;27;20212;-75
2021/07/22 06:56:51;;;;;;;13.98;4.93;;;;;;;36.67;27.78;97714.16;5114432;27;20516;-75
2021/07/22 06:59:17;;;;;;;18.55;4.60;;;;;;;36.13;27.86;97717.75;5132456;27;20080;-76
2021/07/22 07:01:43;;;;;;;6.40;4.00;;;;;;;35.96;27.89;97711.31;5131145;27;20023;-76
2021/07/22 07:04:08;;;;;;;13.98;4.35;;;;;;;35.94;28.50;97710.69;5113870;27;20603;-75
2021/07/22 07:06:34;;;;;;;8.68;4.18;;;;;;;35.97;28.24;97701.84;5130970;27;20023;-75
2021/07/22 07:09:01;;;;;;;15.20;4.20;;;;;;;37.17;27.13;97708.44;5132279;27;20035;-76
2021/07/22 07:11:27;;;;;;;5.85;3.90;;;;;;;37.51;26.85;97703.56;5130719;27;20031;-75
2021/07/22 07:13:53;;;;;;;14.45;4.47;;;;;;;37.98;26.27;97706.59;5130965;27;20395;-74
2021/07/22 07:16:19;;;;;;;8.10;3.97;;;;;;;37.49;27.01;97699.34;5130660;27;20031;-75
2021/07/22 07:18:45;;;;;;;14.52;5.93;;;;;;;36.98;26.93;97681.13;5132091;27;20023;-74
2021/07/22 07:21:10;;;;;;;6.32;3.88;;;;;;;37.23;26.45;97706.56;5132249;27;20031;-75
2021/07/22 07:23:36;;;;;;;5.45;4.10;;;;;;;37.99;25.78;97700.72;5130771;27;20053;-75
2021/07/22 07:26:01;;;;;;;11.20;4.22;;;;;;;37.67;25.72;97696.19;5132211;27;20080;-75
2021/07/22 07:28:27;;;;;;;10.20;4.50;;;;;;;38.67;25.58;97703.78;5130754;28;20030;-75
2021/07/22 07:30:53;;;;;;;11.68;4.18;;;;;;;38.91;25.20;97697.53;5131016;28;20034;-74
2021/07/22 07:33:19;;;;;;;11.45;4.28;;;;;;;37.81;26.10;97709.47;5113284;28;20031;-75
2021/07/22 07:35:44;;;;;;;7.63;4.10;;;;;;;37.35;26.31;97694.16;5113554;28;20493;-74
2021/07/22 07:38:10;;;;;;;9.45;4.13;;;;;;;37.15;26.73;97696.72;5134043;27;20055;-74
2021/07/22 07:40:36;;;;;;;9.65;3.88;;;;;;;37.13;26.51;97700.88;5134790;27;20027;-75
2021/07/22 07:43:01;;;;;;;7.10;4.00;;;;;;;36.10;27.35;97688.47;5135152;27;20026;-75
2021/07/22 07:45:29;;;;;;;16.00;4.03;;;;;;;36.87;27.23;97700.50;5134630;27;20023;-75
2021/07/22 07:47:55;;;;;;;8.38;3.85;;;;;;;35.55;28.48;97704.97;5134577;27;20035;-75
2021/07/22 07:50:21;;;;;;;11.50;4.80;;;;;;;34.85;30.10;97716.31;5117338;27;20035;-75
2021/07/22 07:52:46;;;;;;;10.50;4.38;;;;;;;33.02;32.77;97719.25;5135861;27;20149;-75
2021/07/22 07:55:13;;;;;;;8.38;4.90;;;;;;;31.05;35.48;97723.69;5135695;27;20068;-75
2021/07/22 07:57:39;;;;;;;12.45;7.72;;;;;;;30.38;37.08;97746.16;5134293;27;20163;-74
2021/07/22 08:00:06;;;;;;;8.98;5.25;;;;;;;29.80;37.94;97731.28;5117174;27;20414;-74
2021/07/22 08:02:32;;;;;;;132.10;10.13;;;;;;;30.05;38.33;97746.19;5116795;27;20025;-74
2021/07/22 08:04:58;;;;;;;40.90;6.28;;;;;;;29.78;37.94;97738.94;5134480;27;20090;-74
2021/07/22 08:07:24;;;;;;;13.15;5.38;;;;;;;29.68;37.31;97724.72;5135342;27;20031;-75
2021/07/22 08:09:50;;;;;;;95.57;8.18;;;;;;;29.48;38.96;97739.31;5134326;27;20031;-74
2021/07/22 08:12:16;;;;;;;116.82;8.43;;;;;;;29.24;38.64;97731.63;5134205;27;20038;-74
2021/07/22 08:14:42;;;;;;;12.00;3.63;;;;;;;29.03;38.61;97729.00;5116469;27;20047;-74
2021/07/22 08:17:08;;;;;;;10.43;3.13;;;;;;;29.13;38.25;97740.47;5134036;27;20019;-74
2021/07/22 08:19:34;;;;;;;9.27;3.58;;;;;;;29.05;39.08;97740.66;5133804;27;20030;-74
2021/07/22 08:22:00;;;;;;;11.38;3.55;;;;;;;29.51;38.42;97725.13;5134101;27;20144;-74
2021/07/22 08:24:25;;;;;;;9.68;3.50;;;;;;;29.89;37.51;97721.78;5133901;27;20046;-74
2021/07/22 08:26:51;;;;;;;11.05;3.63;;;;;;;30.22;37.20;97722.59;5135071;27;20490;-74
2021/07/22 08:29:16;;;;;;;6.45;3.20;;;;;;;32.47;33.71;97727.56;5135099;27;20105;-74
2021/07/22 08:31:42;;;;;;;86.45;7.18;;;;;;;33.25;31.54;97711.09;5134800;27;20031;-74
2021/07/22 08:34:09;;;;;;;38.17;5.65;;;;;;;33.75;31.86;97715.28;5135025;27;20109;-74
2021/07/22 08:36:34;;;;;;;3.78;2.90;;;;;;;35.20;28.07;97695.94;5116554;27;20096;-74
2021/07/22 08:39:00;;;;;;;43.22;5.53;;;;;;;36.76;26.72;97707.03;5135238;27;20031;-75
2021/07/22 08:41:25;;;;;;;66.47;7.90;;;;;;;37.49;26.07;97700.22;5108098;27;20525;-75
2021/07/22 08:43:51;;;;;;;78.50;6.22;;;;;;;38.31;25.68;97719.44;5134791;27;20459;-75
2021/07/22 08:46:18;;;;;;;19.88;4.78;;;;;;;37.98;25.28;97712.19;5133603;27;20045;-75
2021/07/22 08:48:44;;;;;;;4.40;3.30;;;;;;;34.31;28.84;97713.91;5132598;27;20379;-75
2021/07/22 08:51:09;;;;;;;7.78;3.53;;;;;;;36.73;26.31;97706.75;5133650;27;20027;-75
2021/07/22 08:53:35;;;;;;;11.77;3.20;;;;;;;37.61;25.28;97719.59;5133305;27;20030;-75
2021/07/22 08:56:03;;;;;;;7.72;3.40;;;;;;;38.29;24.85;97710.47;5133459;27;20023;-74
2021/07/22 08:58:29;;;;;;;9.90;3.30;;;;;;;38.94;24.15;97691.38;5116520;27;20027;-74
2021/07/22 09:00:56;;;;;;;10.18;3.38;;;;;;;39.03;23.62;97700.94;5133022;27;20454;-75
2021/07/22 09:03:21;;;;;;;7.00;2.70;;;;;;;39.16;23.57;97698.75;5115946;27;20023;-74
2021/07/22 09:05:47;;;;;;;7.63;3.78;;;;;;;39.53;23.12;97679.84;5134177;27;20022;-74
2021/07/22 09:08:13;;;;;;;9.93;2.53;;;;;;;39.26;22.55;97687.59;5133059;27;20019;-75
2021/07/22 09:10:39;;;;;;;28.85;3.88;;;;;;;37.65;24.78;97699.28;5134099;27;20027;-74
2021/07/22 09:13:05;;;;;;;10.05;2.83;;;;;;;38.29;23.00;97693.69;5132687;27;20462;-75
2021/07/22 09:15:35;;;;;;;4.10;2.90;;;;;;;38.31;23.02;97680.28;5132855;27;20031;-75
2021/07/22 09:18:31;;;;;;;6.30;2.92;;;;;;;38.60;23.15;97687.25;5133005;27;20470;-75
2021/07/22 09:20:57;;;;;;;5.43;2.78;;;;;;;38.29;22.92;97690.91;5107662;27;20038;-75
2021/07/22 09:23:25;;;;;;;15.52;3.10;;;;;;;39.15;22.76;97674.66;5133034;27;20015;-74
2021/07/22 09:25:52;;;;;;;8.82;4.68;;;;;;;39.12;22.55;97675.19;5132513;27;20015;-74
2021/07/22 09:28:26;;;;;;;4.13;3.40;;;;;;;38.26;23.85;97681.09;5132759;27;20019;-75
2021/07/22 09:30:59;;;;;;;4.88;3.35;;;;;;;36.80;24.37;97668.31;5115114;27;20027;-74
2021/07/22 09:33:40;;;;;;;23.08;3.60;;;;;;;37.28;25.13;97684.31;5115320;27;20429;-75
2021/07/22 09:36:07;;;;;;;11.35;3.35;;;;;;;37.93;24.50;97671.03;5124693;27;20030;-75
2021/07/22 09:38:33;;;;;;;15.82;3.53;;;;;;;38.14;22.24;97657.25;5132469;27;20033;-75
2021/07/22 09:40:58;;;;;;;7.07;2.90;;;;;;;38.21;22.15;97660.66;5132236;27;20101;-75
2021/07/22 09:43:43;;;;;;;6.47;2.65;;;;;;;37.17;24.25;97660.16;5132491;27;20023;-75
2021/07/22 09:46:08;;;;;;;3.80;2.50;;;;;;;38.27;22.48;97652.00;5107634;27;20042;-75
2021/07/22 09:48:34;;;;;;;5.07;2.80;;;;;;;39.24;22.39;97667.44;5133759;27;20103;-75
2021/07/22 09:51:00;;;;;;;5.07;3.10;;;;;;;40.34;20.86;97651.88;5131925;27;20050;-74
2021/07/22 09:53:27;;;;;;;14.50;2.75;;;;;;;38.42;21.27;97651.31;5115198;27;20026;-74
2021/07/22 09:55:56;;;;;;;4.00;2.83;;;;;;;37.97;21.64;97643.41;5115119;27;20397;-74
2021/07/22 09:58:22;;;;;;;8.05;2.95;;;;;;;38.76;22.04;97658.25;5132324;27;20023;-74
2021/07/22 10:00:50;;;;;;;6.82;2.60;;;;;;;39.50;20.31;97638.38;5131851;27;20030;-74
2021/07/22 10:03:18;;;;;;;8.40;2.60;;;;;;;38.95;21.62;97631.47;5132044;27;20027;-74
2021/07/22 10:05:46;;;;;;;12.30;4.00;;;;;;;37.28;24.86;97648.03;5132849;27;20482;-74
2021/07/22 10:08:16;;;;;;;100.72;6.68;;;;;;;35.19;27.53;97660.88;5132072;27;20080;-75
2021/07/22 10:10:43;;;;;;;22.98;3.85;;;;;;;34.79;28.80;97670.03;5131832;27;20079;-75
2021/07/22 10:13:09;;;;;;;17.98;3.38;;;;;;;33.55;30.03;97669.47;5114662;27;20096;-75
2021/07/22 10:15:36;;;;;;;7.88;3.30;;;;;;;32.78;29.89;97664.78;5131795;27;20027;-74
2021/07/22 10:18:05;;;;;;;6.15;2.40;;;;;;;31.80;28.86;97636.19;5131447;27;20074;-74
2021/07/22 10:20:32;;;;;;;6.82;2.80;;;;;;;31.31;29.95;97661.88;5131623;27;20015;-74
2021/07/22 10:22:58;;;;;;;43.17;5.38;;;;;;;33.09;27.60;97639.66;5131417;27;20042;-73
2021/07/22 10:25:25;;;;;;;356.20;22.63;;;;;;;35.07;26.33;97651.69;5131583;27;20539;-74
2021/07/22 10:27:52;;;;;;;38.80;4.88;;;;;;;36.23;23.55;97637.09;5131413;27;20507;-74
2021/07/22 10:30:19;;;;;;;138.05;11.00;;;;;;;35.21;25.13;97631.69;5131444;27;20041;-74
2021/07/22 10:32:58;;;;;;;13.25;2.65;;;;;;;35.48;25.20;97631.91;5131280;27;20023;-74
2021/07/22 10:35:30;;;;;;;8.00;2.28;;;;;;;34.17;26.40;97634.69;5131369;27;20027;-73
2021/07/22 10:38:20;;;;;;;6.20;2.40;;;;;;;34.15;27.23;97645.19;5131430;27;20432;-74
2021/07/22 10:40:57;;;;;;;6.93;2.60;;;;;;;33.23;28.20;97646.69;5131297;27;20061;-73
2021/07/22 10:43:41;;;;;;;9.18;2.83;;;;;;;32.73;28.00;97644.13;5131309;27;20026;-74
2021/07/22 10:46:15;;;;;;;17.30;2.90;;;;;;;33.96;27.99;97643.59;5131255;27;20027;-74
2021/07/22 10:48:42;;;;;;;8.80;2.67;;;;;;;36.66;23.84;97634.41;5114206;27;20027;-75
2021/07/22 10:51:18;;;;;;;12.35;2.55;;;;;;;38.31;22.99;97635.53;5113961;27;20037;-75
2021/07/22 10:53:54;;;;;;;4.00;2.92;;;;;;;39.52;21.59;97627.72;5131322;27;20100;-74
2021/07/22 10:56:23;;;;;;;7.53;3.65;;;;;;;40.24;20.64;97637.91;5131152;27;20131;-75
2021/07/22 10:58:51;;;;;;;2.65;2.42;;;;;;;40.17;21.12;97631.72;5131243;27;20034;-74
2021/07/22 11:01:41;;;;;;;6.80;2.50;;;;;;;38.75;21.65;97620.16;5132347;27;20023;-75
2021/07/22 11:04:11;;;;;;;4.57;2.22;;;;;;;37.85;21.18;97618.41;5130997;27;20475;-74
2021/07/22 11:06:58;;;;;;;4.97;2.30;;;;;;;38.35;20.45;97608.78;5131057;27;20022;-74
2021/07/22 11:09:45;;;;;;;7.90;2.35;;;;;;;38.63;21.16;97611.16;5130917;27;20023;-74
2021/07/22 11:12:32;;;;;;;13.93;2.67;;;;;;;38.45;22.89;97614.44;5130537;27;20027;-74
2021/07/22 11:15:00;;;;;;;8.35;2.92;;;;;;;37.69;22.97;97616.59;5131823;27;20040;-75
2021/07/22 11:17:33;;;;;;;58.45;4.78;;;;;;;35.86;25.20;97611.72;5114400;28;20054;-74
2021/07/22 11:20:17;;;;;;;73.50;5.20;;;;;;;34.30;26.69;97623.34;5113540;28;20075;-74